sensor_id;sensor_type;location;lat;lon;timestamp;P1;durP1;ratioP1;P2;durP2;ratioP2
22812;SDS011;11573;51.334;3.244;2023-06-22T00:00:11;15.63;;;10.35;;
22812;SDS011;11573;51.334;3.244;2023-06-22T00:02:38;19.00;;;11.45;;
22812;SDS011;11573;51.334;3.244;2023-06-22T00:05:06;14.52;;;10.45;;
22812;SDS011;11573;51.334;3.244;2023-06-22T00:07:33;16.00;;;11.52;;
22812;SDS011;11573;51.334;3.244;2023-06-22T00:10:00;14.30;;;10.45;;
22812;SDS011;11573;51.334;3.244;2023-06-22T00:12:27;15.20;;;11.15;;
22812;SDS011;11573;51.334;3.244;2023-06-22T00:14:54;14.60;;;11.65;;
22812;SDS011;11573;51.334;3.244;2023-06-22T00:17:20;18.10;;;11.80;;
22812;SDS011;11573;51.334;3.244;2023-06-22T00:19:47;16.48;;;11.82;;
22812;SDS011;11573;51.334;3.244;2023-06-22T00:22:19;15.85;;;12.50;;
22812;SDS011;11573;51.334;3.244;2023-06-22T00:24:55;16.90;;;11.93;;
22812;SDS011;11573;51.334;3.244;2023-06-22T00:27:23;20.83;;;13.52;;
22812;SDS011;11573;51.334;3.244;2023-06-22T00:29:50;18.25;;;13.57;;
22812;SDS011;11573;51.334;3.244;2023-06-22T00:32:17;20.58;;;12.48;;
22812;SDS011;11573;51.334;3.244;2023-06-22T00:34:46;18.08;;;12.45;;
22812;SDS011;11573;51.334;3.244;2023-06-22T00:37:13;23.50;;;14.35;;
22812;SDS011;11573;51.334;3.244;2023-06-22T00:39:40;19.75;;;13.70;;
22812;SDS011;11573;51.334;3.244;2023-06-22T00:42:08;23.35;;;14.73;;
22812;SDS011;11573;51.334;3.244;2023-06-22T00:44:35;19.88;;;14.13;;
22812;SDS011;11573;51.334;3.244;2023-06-22T00:47:03;19.85;;;14.02;;
22812;SDS011;11573;51.334;3.244;2023-06-22T00:49:31;20.60;;;13.52;;
22812;SDS011;11573;51.334;3.244;2023-06-22T00:51:57;21.33;;;14.10;;
22812;SDS011;11573;51.334;3.244;2023-06-22T00:54:26;18.73;;;13.27;;
22812;SDS011;11573;51.334;3.244;2023-06-22T00:56:55;22.70;;;13.90;;
22812;SDS011;11573;51.334;3.244;2023-06-22T00:59:24;21.85;;;13.70;;
22812;SDS011;11573;51.334;3.244;2023-06-22T01:01:52;23.52;;;13.38;;
22812;SDS011;11573;51.334;3.244;2023-06-22T01:04:19;25.33;;;14.90;;
22812;SDS011;11573;51.334;3.244;2023-06-22T01:07:03;22.10;;;13.70;;
22812;SDS011;11573;51.334;3.244;2023-06-22T01:09:46;20.88;;;13.02;;
22812;SDS011;11573;51.334;3.244;2023-06-22T01:12:40;23.23;;;12.50;;
22812;SDS011;11573;51.334;3.244;2023-06-22T01:15:16;21.85;;;14.27;;
22812;SDS011;11573;51.334;3.244;2023-06-22T01:17:49;24.70;;;14.30;;
22812;SDS011;11573;51.334;3.244;2023-06-22T01:20:19;22.17;;;13.30;;
22812;SDS011;11573;51.334;3.244;2023-06-22T01:25:28;18.15;;;12.80;;
22812;SDS011;11573;51.334;3.244;2023-06-22T01:31:10;19.65;;;12.60;;
22812;SDS011;11573;51.334;3.244;2023-06-22T01:33:39;22.38;;;12.27;;
22812;SDS011;11573;51.334;3.244;2023-06-22T01:36:08;20.90;;;12.95;;
22812;SDS011;11573;51.334;3.244;2023-06-22T01:38:37;16.70;;;11.38;;
22812;SDS011;11573;51.334;3.244;2023-06-22T01:41:05;17.75;;;11.13;;
22812;SDS011;11573;51.334;3.244;2023-06-22T01:43:32;15.02;;;10.95;;
22812;SDS011;11573;51.334;3.244;2023-06-22T01:46:01;18.70;;;10.75;;
22812;SDS011;11573;51.334;3.244;2023-06-22T01:48:29;12.77;;;9.50;;
22812;SDS011;11573;51.334;3.244;2023-06-22T01:50:57;18.38;;;9.85;;
22812;SDS011;11573;51.334;3.244;2023-06-22T01:53:24;13.65;;;9.25;;
22812;SDS011;11573;51.334;3.244;2023-06-22T01:55:51;15.43;;;9.55;;
22812;SDS011;11573;51.334;3.244;2023-06-22T01:58:20;11.73;;;9.23;;
22812;SDS011;11573;51.334;3.244;2023-06-22T02:01:35;15.45;;;9.63;;
22812;SDS011;11573;51.334;3.244;2023-06-22T02:03:49;12.57;;;8.77;;
22812;SDS011;11573;51.334;3.244;2023-06-22T02:06:24;15.35;;;9.48;;
22812;SDS011;11573;51.334;3.244;2023-06-22T02:09:02;12.95;;;9.05;;
22812;SDS011;11573;51.334;3.244;2023-06-22T02:11:39;14.63;;;9.20;;
22812;SDS011;11573;51.334;3.244;2023-06-22T02:14:08;12.68;;;9.40;;
22812;SDS011;11573;51.334;3.244;2023-06-22T02:16:36;10.85;;;8.30;;
22812;SDS011;11573;51.334;3.244;2023-06-22T02:19:04;12.40;;;7.93;;
22812;SDS011;11573;51.334;3.244;2023-06-22T02:21:34;12.70;;;8.38;;
22812;SDS011;11573;51.334;3.244;2023-06-22T02:24:01;9.15;;;7.70;;
22812;SDS011;11573;51.334;3.244;2023-06-22T02:26:29;12.70;;;7.90;;
22812;SDS011;11573;51.334;3.244;2023-06-22T02:28:57;12.57;;;8.73;;
22812;SDS011;11573;51.334;3.244;2023-06-22T02:31:23;13.98;;;8.73;;
22812;SDS011;11573;51.334;3.244;2023-06-22T02:33:57;11.85;;;8.82;;
22812;SDS011;11573;51.334;3.244;2023-06-22T02:36:24;17.45;;;10.02;;
22812;SDS011;11573;51.334;3.244;2023-06-22T02:38:53;17.27;;;10.30;;
22812;SDS011;11573;51.334;3.244;2023-06-22T02:41:22;15.25;;;9.88;;
22812;SDS011;11573;51.334;3.244;2023-06-22T02:43:49;15.00;;;9.82;;
22812;SDS011;11573;51.334;3.244;2023-06-22T02:46:18;18.30;;;10.15;;
22812;SDS011;11573;51.334;3.244;2023-06-22T02:48:45;12.68;;;9.55;;
22812;SDS011;11573;51.334;3.244;2023-06-22T02:51:13;13.48;;;9.77;;
22812;SDS011;11573;51.334;3.244;2023-06-22T02:53:41;14.95;;;9.60;;
22812;SDS011;11573;51.334;3.244;2023-06-22T02:56:13;19.10;;;10.90;;
22812;SDS011;11573;51.334;3.244;2023-06-22T02:58:40;19.08;;;10.95;;
22812;SDS011;11573;51.334;3.244;2023-06-22T03:01:09;14.43;;;10.32;;
22812;SDS011;11573;51.334;3.244;2023-06-22T03:03:41;11.98;;;9.93;;
22812;SDS011;11573;51.334;3.244;2023-06-22T03:06:08;17.45;;;10.90;;
22812;SDS011;11573;51.334;3.244;2023-06-22T03:08:40;15.40;;;9.85;;
22812;SDS011;11573;51.334;3.244;2023-06-22T03:11:08;13.07;;;9.82;;
22812;SDS011;11573;51.334;3.244;2023-06-22T03:13:35;15.85;;;9.48;;
22812;SDS011;11573;51.334;3.244;2023-06-22T03:16:02;21.17;;;9.63;;
22812;SDS011;11573;51.334;3.244;2023-06-22T03:18:29;13.35;;;9.40;;
22812;SDS011;11573;51.334;3.244;2023-06-22T03:20:56;17.17;;;9.60;;
22812;SDS011;11573;51.334;3.244;2023-06-22T03:23:23;15.18;;;9.95;;
22812;SDS011;11573;51.334;3.244;2023-06-22T03:25:50;15.35;;;9.98;;
22812;SDS011;11573;51.334;3.244;2023-06-22T03:28:17;17.15;;;9.00;;
22812;SDS011;11573;51.334;3.244;2023-06-22T03:30:44;15.60;;;9.52;;
22812;SDS011;11573;51.334;3.244;2023-06-22T03:33:11;12.88;;;9.35;;
22812;SDS011;11573;51.334;3.244;2023-06-22T03:35:38;14.32;;;9.80;;
22812;SDS011;11573;51.334;3.244;2023-06-22T03:38:05;22.73;;;9.75;;
22812;SDS011;11573;51.334;3.244;2023-06-22T03:40:32;15.70;;;9.20;;
22812;SDS011;11573;51.334;3.244;2023-06-22T03:43:00;12.52;;;8.43;;
22812;SDS011;11573;51.334;3.244;2023-06-22T03:45:29;18.30;;;8.52;;
22812;SDS011;11573;51.334;3.244;2023-06-22T03:47:56;15.30;;;8.52;;
22812;SDS011;11573;51.334;3.244;2023-06-22T03:50:24;15.23;;;8.80;;
22812;SDS011;11573;51.334;3.244;2023-06-22T03:52:51;9.32;;;7.65;;
22812;SDS011;11573;51.334;3.244;2023-06-22T03:55:22;11.00;;;8.10;;
22812;SDS011;11573;51.334;3.244;2023-06-22T03:57:49;12.38;;;7.15;;
22812;SDS011;11573;51.334;3.244;2023-06-22T04:00:16;11.43;;;7.78;;
22812;SDS011;11573;51.334;3.244;2023-06-22T04:02:43;14.70;;;8.38;;
22812;SDS011;11573;51.334;3.244;2023-06-22T04:05:10;14.48;;;7.97;;
22812;SDS011;11573;51.334;3.244;2023-06-22T04:07:37;11.35;;;7.57;;
22812;SDS011;11573;51.334;3.244;2023-06-22T04:10:04;13.80;;;8.32;;
22812;SDS011;11573;51.334;3.244;2023-06-22T04:12:32;9.82;;;7.32;;
22812;SDS011;11573;51.334;3.244;2023-06-22T04:14:59;11.50;;;7.47;;
22812;SDS011;11573;51.334;3.244;2023-06-22T04:17:26;11.93;;;8.52;;
22812;SDS011;11573;51.334;3.244;2023-06-22T04:19:53;13.75;;;9.07;;
22812;SDS011;11573;51.334;3.244;2023-06-22T04:22:20;12.52;;;9.25;;
22812;SDS011;11573;51.334;3.244;2023-06-22T04:24:47;11.63;;;9.55;;
22812;SDS011;11573;51.334;3.244;2023-06-22T04:27:14;9.68;;;8.20;;
22812;SDS011;11573;51.334;3.244;2023-06-22T04:29:41;9.93;;;8.63;;
22812;SDS011;11573;51.334;3.244;2023-06-22T04:32:15;8.45;;;7.55;;
22812;SDS011;11573;51.334;3.244;2023-06-22T04:34:42;9.90;;;7.95;;
22812;SDS011;11573;51.334;3.244;2023-06-22T04:37:09;9.07;;;6.50;;
22812;SDS011;11573;51.334;3.244;2023-06-22T04:39:42;8.18;;;5.82;;
22812;SDS011;11573;51.334;3.244;2023-06-22T04:42:09;5.72;;;4.72;;
22812;SDS011;11573;51.334;3.244;2023-06-22T04:44:36;4.78;;;4.28;;
22812;SDS011;11573;51.334;3.244;2023-06-22T04:47:03;5.00;;;4.20;;
22812;SDS011;11573;51.334;3.244;2023-06-22T04:49:35;5.80;;;4.60;;
22812;SDS011;11573;51.334;3.244;2023-06-22T04:52:07;5.50;;;3.83;;
22812;SDS011;11573;51.334;3.244;2023-06-22T04:54:35;5.70;;;4.03;;
22812;SDS011;11573;51.334;3.244;2023-06-22T04:57:04;6.63;;;4.35;;
22812;SDS011;11573;51.334;3.244;2023-06-22T04:59:36;5.65;;;4.32;;
22812;SDS011;11573;51.334;3.244;2023-06-22T05:02:05;7.78;;;5.55;;
22812;SDS011;11573;51.334;3.244;2023-06-22T05:04:32;7.40;;;4.70;;
22812;SDS011;11573;51.334;3.244;2023-06-22T05:07:02;7.68;;;5.95;;
22812;SDS011;11573;51.334;3.244;2023-06-22T05:09:30;8.55;;;6.45;;
22812;SDS011;11573;51.334;3.244;2023-06-22T05:11:57;12.07;;;7.70;;
22812;SDS011;11573;51.334;3.244;2023-06-22T05:14:24;9.40;;;7.40;;
22812;SDS011;11573;51.334;3.244;2023-06-22T05:16:51;12.27;;;7.50;;
22812;SDS011;11573;51.334;3.244;2023-06-22T05:19:25;11.60;;;8.30;;
22812;SDS011;11573;51.334;3.244;2023-06-22T05:21:57;14.25;;;9.32;;
22812;SDS011;11573;51.334;3.244;2023-06-22T05:24:24;12.32;;;8.98;;
22812;SDS011;11573;51.334;3.244;2023-06-22T05:26:51;15.00;;;8.77;;
22812;SDS011;11573;51.334;3.244;2023-06-22T05:29:18;13.05;;;9.70;;
22812;SDS011;11573;51.334;3.244;2023-06-22T05:31:45;14.40;;;10.48;;
22812;SDS011;11573;51.334;3.244;2023-06-22T05:34:12;14.02;;;10.95;;
22812;SDS011;11573;51.334;3.244;2023-06-22T05:36:39;15.77;;;10.90;;
22812;SDS011;11573;51.334;3.244;2023-06-22T05:39:12;15.55;;;10.35;;
22812;SDS011;11573;51.334;3.244;2023-06-22T05:41:41;15.27;;;11.80;;
22812;SDS011;11573;51.334;3.244;2023-06-22T05:44:09;13.95;;;11.27;;
22812;SDS011;11573;51.334;3.244;2023-06-22T05:46:37;16.38;;;10.75;;
22812;SDS011;11573;51.334;3.244;2023-06-22T05:49:14;20.50;;;11.82;;
22812;SDS011;11573;51.334;3.244;2023-06-22T05:51:42;17.15;;;11.65;;
22812;SDS011;11573;51.334;3.244;2023-06-22T05:54:09;15.70;;;9.88;;
22812;SDS011;11573;51.334;3.244;2023-06-22T05:56:36;17.20;;;10.65;;
22812;SDS011;11573;51.334;3.244;2023-06-22T05:59:03;17.10;;;11.10;;
22812;SDS011;11573;51.334;3.244;2023-06-22T06:01:30;16.23;;;11.00;;
22812;SDS011;11573;51.334;3.244;2023-06-22T06:04:02;18.00;;;10.43;;
22812;SDS011;11573;51.334;3.244;2023-06-22T06:06:30;14.75;;;11.05;;
22812;SDS011;11573;51.334;3.244;2023-06-22T06:08:57;15.57;;;11.63;;
22812;SDS011;11573;51.334;3.244;2023-06-22T06:11:26;17.05;;;12.80;;
22812;SDS011;11573;51.334;3.244;2023-06-22T06:13:53;18.38;;;12.68;;
22812;SDS011;11573;51.334;3.244;2023-06-22T06:16:20;20.45;;;13.60;;
22812;SDS011;11573;51.334;3.244;2023-06-22T06:18:47;20.63;;;13.88;;
22812;SDS011;11573;51.334;3.244;2023-06-22T06:21:17;20.13;;;14.07;;
22812;SDS011;11573;51.334;3.244;2023-06-22T06:23:44;19.50;;;13.38;;
22812;SDS011;11573;51.334;3.244;2023-06-22T06:26:11;19.38;;;14.00;;
22812;SDS011;11573;51.334;3.244;2023-06-22T06:28:38;17.77;;;13.43;;
22812;SDS011;11573;51.334;3.244;2023-06-22T06:31:05;20.42;;;13.63;;
22812;SDS011;11573;51.334;3.244;2023-06-22T06:33:34;19.58;;;14.20;;
22812;SDS011;11573;51.334;3.244;2023-06-22T06:36:01;22.30;;;15.32;;
22812;SDS011;11573;51.334;3.244;2023-06-22T06:38:30;20.95;;;14.95;;
22812;SDS011;11573;51.334;3.244;2023-06-22T06:40:57;22.20;;;15.25;;
22812;SDS011;11573;51.334;3.244;2023-06-22T06:43:25;24.55;;;15.48;;
22812;SDS011;11573;51.334;3.244;2023-06-22T06:45:52;17.30;;;13.52;;
22812;SDS011;11573;51.334;3.244;2023-06-22T06:48:19;16.17;;;12.43;;
22812;SDS011;11573;51.334;3.244;2023-06-22T06:50:46;19.48;;;12.85;;
22812;SDS011;11573;51.334;3.244;2023-06-22T06:53:13;19.13;;;13.43;;
22812;SDS011;11573;51.334;3.244;2023-06-22T06:55:40;20.23;;;13.68;;
22812;SDS011;11573;51.334;3.244;2023-06-22T06:58:07;20.02;;;14.45;;
22812;SDS011;11573;51.334;3.244;2023-06-22T07:00:36;25.42;;;15.88;;
22812;SDS011;11573;51.334;3.244;2023-06-22T07:03:04;22.08;;;15.90;;
22812;SDS011;11573;51.334;3.244;2023-06-22T07:05:31;27.00;;;18.13;;
22812;SDS011;11573;51.334;3.244;2023-06-22T07:07:58;25.38;;;16.13;;
22812;SDS011;11573;51.334;3.244;2023-06-22T07:10:25;25.67;;;15.88;;
22812;SDS011;11573;51.334;3.244;2023-06-22T07:12:53;23.15;;;17.40;;
22812;SDS011;11573;51.334;3.244;2023-06-22T07:15:20;21.70;;;16.92;;
22812;SDS011;11573;51.334;3.244;2023-06-22T07:17:47;20.35;;;16.30;;
22812;SDS011;11573;51.334;3.244;2023-06-22T07:20:14;24.75;;;17.33;;
22812;SDS011;11573;51.334;3.244;2023-06-22T07:22:42;22.63;;;16.80;;
22812;SDS011;11573;51.334;3.244;2023-06-22T07:25:10;24.35;;;19.25;;
22812;SDS011;11573;51.334;3.244;2023-06-22T07:28:03;25.58;;;18.00;;
22812;SDS011;11573;51.334;3.244;2023-06-22T07:30:32;27.55;;;19.17;;
22812;SDS011;11573;51.334;3.244;2023-06-22T07:33:00;26.73;;;19.38;;
22812;SDS011;11573;51.334;3.244;2023-06-22T07:35:30;30.50;;;19.38;;
22812;SDS011;11573;51.334;3.244;2023-06-22T07:37:57;28.63;;;18.60;;
22812;SDS011;11573;51.334;3.244;2023-06-22T07:40:24;28.23;;;18.75;;
22812;SDS011;11573;51.334;3.244;2023-06-22T07:42:52;26.83;;;19.23;;
22812;SDS011;11573;51.334;3.244;2023-06-22T07:45:20;26.50;;;18.13;;
22812;SDS011;11573;51.334;3.244;2023-06-22T07:47:47;26.33;;;18.42;;
22812;SDS011;11573;51.334;3.244;2023-06-22T07:50:14;28.85;;;18.52;;
22812;SDS011;11573;51.334;3.244;2023-06-22T07:52:41;34.42;;;18.70;;
22812;SDS011;11573;51.334;3.244;2023-06-22T07:55:08;28.65;;;17.55;;
22812;SDS011;11573;51.334;3.244;2023-06-22T07:57:35;29.08;;;18.85;;
22812;SDS011;11573;51.334;3.244;2023-06-22T08:00:03;25.10;;;17.55;;
22812;SDS011;11573;51.334;3.244;2023-06-22T08:02:44;24.13;;;17.95;;
22812;SDS011;11573;51.334;3.244;2023-06-22T08:05:13;23.52;;;17.02;;
22812;SDS011;11573;51.334;3.244;2023-06-22T08:07:59;24.83;;;18.05;;
22812;SDS011;11573;51.334;3.244;2023-06-22T08:10:26;28.30;;;18.33;;
22812;SDS011;11573;51.334;3.244;2023-06-22T08:12:54;22.58;;;17.17;;
22812;SDS011;11573;51.334;3.244;2023-06-22T08:15:20;24.77;;;18.73;;
22812;SDS011;11573;51.334;3.244;2023-06-22T08:17:48;23.83;;;17.23;;
22812;SDS011;11573;51.334;3.244;2023-06-22T08:20:15;22.90;;;16.17;;
22812;SDS011;11573;51.334;3.244;2023-06-22T08:22:42;23.73;;;16.20;;
22812;SDS011;11573;51.334;3.244;2023-06-22T08:25:10;24.80;;;17.40;;
22812;SDS011;11573;51.334;3.244;2023-06-22T08:27:37;24.95;;;16.42;;
22812;SDS011;11573;51.334;3.244;2023-06-22T08:30:05;25.17;;;17.33;;
22812;SDS011;11573;51.334;3.244;2023-06-22T08:32:34;25.13;;;18.15;;
22812;SDS011;11573;51.334;3.244;2023-06-22T08:35:01;24.77;;;17.63;;
22812;SDS011;11573;51.334;3.244;2023-06-22T08:37:28;24.75;;;18.23;;
22812;SDS011;11573;51.334;3.244;2023-06-22T08:40:08;22.67;;;17.38;;
22812;SDS011;11573;51.334;3.244;2023-06-22T08:42:36;24.10;;;18.33;;
22812;SDS011;11573;51.334;3.244;2023-06-22T08:45:04;28.70;;;18.60;;
22812;SDS011;11573;51.334;3.244;2023-06-22T08:47:32;25.55;;;17.80;;
22812;SDS011;11573;51.334;3.244;2023-06-22T08:49:59;23.98;;;18.60;;
22812;SDS011;11573;51.334;3.244;2023-06-22T08:52:28;32.10;;;19.15;;
22812;SDS011;11573;51.334;3.244;2023-06-22T08:54:56;28.60;;;19.27;;
22812;SDS011;11573;51.334;3.244;2023-06-22T08:57:24;26.67;;;18.63;;
22812;SDS011;11573;51.334;3.244;2023-06-22T08:59:51;27.85;;;18.77;;
22812;SDS011;11573;51.334;3.244;2023-06-22T09:02:19;28.08;;;18.83;;
22812;SDS011;11573;51.334;3.244;2023-06-22T09:04:46;31.27;;;20.73;;
22812;SDS011;11573;51.334;3.244;2023-06-22T09:07:13;28.15;;;19.90;;
22812;SDS011;11573;51.334;3.244;2023-06-22T09:09:40;27.00;;;20.13;;
22812;SDS011;11573;51.334;3.244;2023-06-22T09:12:07;27.00;;;20.90;;
22812;SDS011;11573;51.334;3.244;2023-06-22T09:14:35;31.23;;;22.17;;
22812;SDS011;11573;51.334;3.244;2023-06-22T09:17:02;30.63;;;21.17;;
22812;SDS011;11573;51.334;3.244;2023-06-22T09:19:29;33.90;;;22.48;;
22812;SDS011;11573;51.334;3.244;2023-06-22T09:21:56;29.63;;;22.42;;
22812;SDS011;11573;51.334;3.244;2023-06-22T09:24:23;28.77;;;21.95;;
22812;SDS011;11573;51.334;3.244;2023-06-22T09:26:50;27.77;;;22.55;;
22812;SDS011;11573;51.334;3.244;2023-06-22T09:29:18;31.10;;;21.55;;
22812;SDS011;11573;51.334;3.244;2023-06-22T09:31:45;34.40;;;23.00;;
22812;SDS011;11573;51.334;3.244;2023-06-22T09:34:12;32.10;;;22.80;;
22812;SDS011;11573;51.334;3.244;2023-06-22T09:36:40;27.30;;;20.92;;
22812;SDS011;11573;51.334;3.244;2023-06-22T09:39:07;32.17;;;22.30;;
22812;SDS011;11573;51.334;3.244;2023-06-22T09:41:34;29.05;;;22.00;;
22812;SDS011;11573;51.334;3.244;2023-06-22T09:44:01;29.38;;;21.67;;
22812;SDS011;11573;51.334;3.244;2023-06-22T09:46:28;27.77;;;19.52;;
22812;SDS011;11573;51.334;3.244;2023-06-22T09:48:55;33.50;;;23.17;;
22812;SDS011;11573;51.334;3.244;2023-06-22T09:51:23;32.03;;;21.92;;
22812;SDS011;11573;51.334;3.244;2023-06-22T09:53:50;28.65;;;21.70;;
22812;SDS011;11573;51.334;3.244;2023-06-22T09:56:18;30.13;;;21.33;;
22812;SDS011;11573;51.334;3.244;2023-06-22T09:58:46;27.50;;;20.88;;
22812;SDS011;11573;51.334;3.244;2023-06-22T10:01:13;31.92;;;21.10;;
22812;SDS011;11573;51.334;3.244;2023-06-22T10:03:43;30.73;;;20.55;;
22812;SDS011;11573;51.334;3.244;2023-06-22T10:06:10;30.38;;;20.40;;
22812;SDS011;11573;51.334;3.244;2023-06-22T10:08:37;25.90;;;19.67;;
22812;SDS011;11573;51.334;3.244;2023-06-22T10:11:05;26.15;;;20.75;;
22812;SDS011;11573;51.334;3.244;2023-06-22T10:13:32;27.00;;;20.27;;
22812;SDS011;11573;51.334;3.244;2023-06-22T10:15:59;28.75;;;20.45;;
22812;SDS011;11573;51.334;3.244;2023-06-22T10:18:26;30.80;;;22.50;;
22812;SDS011;11573;51.334;3.244;2023-06-22T10:20:53;25.02;;;19.20;;
22812;SDS011;11573;51.334;3.244;2023-06-22T10:23:20;28.45;;;20.25;;
22812;SDS011;11573;51.334;3.244;2023-06-22T10:25:47;27.05;;;20.90;;
22812;SDS011;11573;51.334;3.244;2023-06-22T10:28:14;31.05;;;22.55;;
22812;SDS011;11573;51.334;3.244;2023-06-22T10:30:42;26.58;;;21.65;;
22812;SDS011;11573;51.334;3.244;2023-06-22T10:33:10;29.42;;;20.70;;
22812;SDS011;11573;51.334;3.244;2023-06-22T10:35:38;29.77;;;22.80;;
22812;SDS011;11573;51.334;3.244;2023-06-22T10:38:06;37.63;;;23.88;;
22812;SDS011;11573;51.334;3.244;2023-06-22T10:40:33;32.75;;;24.95;;
22812;SDS011;11573;51.334;3.244;2023-06-22T10:43:00;36.17;;;24.15;;
22812;SDS011;11573;51.334;3.244;2023-06-22T10:45:27;32.70;;;24.45;;
22812;SDS011;11573;51.334;3.244;2023-06-22T10:47:55;30.83;;;22.15;;
22812;SDS011;11573;51.334;3.244;2023-06-22T10:50:22;33.78;;;23.50;;
22812;SDS011;11573;51.334;3.244;2023-06-22T10:52:51;31.65;;;22.40;;
22812;SDS011;11573;51.334;3.244;2023-06-22T10:55:18;31.13;;;23.38;;
22812;SDS011;11573;51.334;3.244;2023-06-22T10:57:45;32.97;;;22.55;;
22812;SDS011;11573;51.334;3.244;2023-06-22T11:00:14;30.55;;;20.73;;
22812;SDS011;11573;51.334;3.244;2023-06-22T11:02:42;29.52;;;20.90;;
22812;SDS011;11573;51.334;3.244;2023-06-22T11:05:10;24.02;;;18.90;;
22812;SDS011;11573;51.334;3.244;2023-06-22T11:07:37;32.47;;;22.48;;
22812;SDS011;11573;51.334;3.244;2023-06-22T11:10:11;29.02;;;20.52;;
22812;SDS011;11573;51.334;3.244;2023-06-22T11:12:39;28.15;;;20.58;;
22812;SDS011;11573;51.334;3.244;2023-06-22T11:15:06;27.63;;;20.02;;
22812;SDS011;11573;51.334;3.244;2023-06-22T11:17:33;30.08;;;21.90;;
22812;SDS011;11573;51.334;3.244;2023-06-22T11:20:01;29.67;;;21.50;;
22812;SDS011;11573;51.334;3.244;2023-06-22T11:22:32;30.02;;;21.67;;
22812;SDS011;11573;51.334;3.244;2023-06-22T11:25:00;34.97;;;23.90;;
22812;SDS011;11573;51.334;3.244;2023-06-22T11:27:27;39.47;;;26.08;;
22812;SDS011;11573;51.334;3.244;2023-06-22T11:29:54;39.35;;;27.48;;
22812;SDS011;11573;51.334;3.244;2023-06-22T11:32:21;41.53;;;28.15;;
22812;SDS011;11573;51.334;3.244;2023-06-22T11:34:49;41.30;;;28.60;;
22812;SDS011;11573;51.334;3.244;2023-06-22T11:37:16;41.67;;;29.73;;
22812;SDS011;11573;51.334;3.244;2023-06-22T11:39:43;42.47;;;29.75;;
22812;SDS011;11573;51.334;3.244;2023-06-22T11:42:19;39.63;;;28.65;;
22812;SDS011;11573;51.334;3.244;2023-06-22T11:44:46;41.90;;;28.90;;
22812;SDS011;11573;51.334;3.244;2023-06-22T11:47:12;40.10;;;26.58;;
22812;SDS011;11573;51.334;3.244;2023-06-22T11:49:40;42.28;;;26.38;;
22812;SDS011;11573;51.334;3.244;2023-06-22T11:52:07;36.13;;;24.27;;
22812;SDS011;11573;51.334;3.244;2023-06-22T11:54:34;38.05;;;25.95;;
22812;SDS011;11573;51.334;3.244;2023-06-22T11:57:01;34.72;;;24.92;;
22812;SDS011;11573;51.334;3.244;2023-06-22T11:59:28;36.00;;;24.15;;
22812;SDS011;11573;51.334;3.244;2023-06-22T12:01:56;33.00;;;23.98;;
22812;SDS011;11573;51.334;3.244;2023-06-22T12:04:25;32.67;;;23.23;;
22812;SDS011;11573;51.334;3.244;2023-06-22T12:06:52;30.00;;;22.60;;
22812;SDS011;11573;51.334;3.244;2023-06-22T12:09:19;35.60;;;23.00;;
22812;SDS011;11573;51.334;3.244;2023-06-22T12:11:46;30.33;;;21.88;;
22812;SDS011;11573;51.334;3.244;2023-06-22T12:14:12;31.80;;;21.45;;
22812;SDS011;11573;51.334;3.244;2023-06-22T12:16:39;29.17;;;21.42;;
22812;SDS011;11573;51.334;3.244;2023-06-22T12:19:06;34.50;;;22.05;;
22812;SDS011;11573;51.334;3.244;2023-06-22T12:21:33;27.65;;;20.55;;
22812;SDS011;11573;51.334;3.244;2023-06-22T12:24:00;28.40;;;21.17;;
22812;SDS011;11573;51.334;3.244;2023-06-22T12:26:27;30.85;;;20.38;;
22812;SDS011;11573;51.334;3.244;2023-06-22T12:28:54;27.90;;;19.42;;
22812;SDS011;11573;51.334;3.244;2023-06-22T12:31:23;27.55;;;18.88;;
22812;SDS011;11573;51.334;3.244;2023-06-22T12:33:50;26.02;;;17.65;;
22812;SDS011;11573;51.334;3.244;2023-06-22T12:36:17;27.70;;;17.60;;
22812;SDS011;11573;51.334;3.244;2023-06-22T12:38:44;23.70;;;15.57;;
22812;SDS011;11573;51.334;3.244;2023-06-22T12:41:11;21.63;;;16.20;;
22812;SDS011;11573;51.334;3.244;2023-06-22T12:43:38;21.52;;;15.98;;
22812;SDS011;11573;51.334;3.244;2023-06-22T12:46:05;21.60;;;14.73;;
22812;SDS011;11573;51.334;3.244;2023-06-22T12:48:32;22.33;;;15.13;;
22812;SDS011;11573;51.334;3.244;2023-06-22T12:50:59;25.55;;;17.33;;
22812;SDS011;11573;51.334;3.244;2023-06-22T12:53:26;24.73;;;17.73;;
22812;SDS011;11573;51.334;3.244;2023-06-22T12:55:53;29.10;;;18.33;;
22812;SDS011;11573;51.334;3.244;2023-06-22T12:58:20;28.73;;;20.85;;
22812;SDS011;11573;51.334;3.244;2023-06-22T13:00:48;34.10;;;23.88;;
22812;SDS011;11573;51.334;3.244;2023-06-22T13:03:15;34.88;;;24.92;;
22812;SDS011;11573;51.334;3.244;2023-06-22T13:05:42;39.63;;;28.60;;
22812;SDS011;11573;51.334;3.244;2023-06-22T13:08:09;47.28;;;33.05;;
22812;SDS011;11573;51.334;3.244;2023-06-22T13:10:38;49.78;;;36.70;;
22812;SDS011;11573;51.334;3.244;2023-06-22T13:13:05;58.05;;;39.65;;
22812;SDS011;11573;51.334;3.244;2023-06-22T13:15:32;53.63;;;40.15;;
22812;SDS011;11573;51.334;3.244;2023-06-22T13:18:00;54.15;;;39.40;;
22812;SDS011;11573;51.334;3.244;2023-06-22T13:20:28;58.03;;;37.88;;
22812;SDS011;11573;51.334;3.244;2023-06-22T13:22:55;50.60;;;36.92;;
22812;SDS011;11573;51.334;3.244;2023-06-22T13:25:23;48.22;;;34.17;;
22812;SDS011;11573;51.334;3.244;2023-06-22T13:27:53;49.70;;;35.50;;
22812;SDS011;11573;51.334;3.244;2023-06-22T13:30:20;45.17;;;31.95;;
22812;SDS011;11573;51.334;3.244;2023-06-22T13:32:47;47.45;;;31.75;;
22812;SDS011;11573;51.334;3.244;2023-06-22T13:35:14;47.35;;;34.15;;
22812;SDS011;11573;51.334;3.244;2023-06-22T13:37:41;50.97;;;35.25;;
22812;SDS011;11573;51.334;3.244;2023-06-22T13:40:08;47.63;;;32.83;;
22812;SDS011;11573;51.334;3.244;2023-06-22T13:42:35;44.67;;;33.08;;
22812;SDS011;11573;51.334;3.244;2023-06-22T13:45:02;50.17;;;34.30;;
22812;SDS011;11573;51.334;3.244;2023-06-22T13:47:30;44.70;;;32.75;;
22812;SDS011;11573;51.334;3.244;2023-06-22T13:49:57;44.05;;;31.50;;
22812;SDS011;11573;51.334;3.244;2023-06-22T13:52:25;43.20;;;30.63;;
22812;SDS011;11573;51.334;3.244;2023-06-22T13:54:52;38.03;;;28.38;;
22812;SDS011;11573;51.334;3.244;2023-06-22T13:57:19;45.83;;;30.77;;
22812;SDS011;11573;51.334;3.244;2023-06-22T13:59:46;39.50;;;29.45;;
22812;SDS011;11573;51.334;3.244;2023-06-22T14:02:13;45.20;;;28.05;;
22812;SDS011;11573;51.334;3.244;2023-06-22T14:04:40;38.20;;;26.20;;
22812;SDS011;11573;51.334;3.244;2023-06-22T14:07:07;38.15;;;26.88;;
22812;SDS011;11573;51.334;3.244;2023-06-22T14:09:34;40.95;;;27.60;;
22812;SDS011;11573;51.334;3.244;2023-06-22T14:12:05;36.63;;;24.92;;
22812;SDS011;11573;51.334;3.244;2023-06-22T14:14:33;39.03;;;27.25;;
22812;SDS011;11573;51.334;3.244;2023-06-22T14:17:00;35.00;;;26.42;;
22812;SDS011;11573;51.334;3.244;2023-06-22T14:19:27;37.00;;;27.20;;
22812;SDS011;11573;51.334;3.244;2023-06-22T14:21:55;39.65;;;29.33;;
22812;SDS011;11573;51.334;3.244;2023-06-22T14:24:23;49.20;;;34.72;;
22812;SDS011;11573;51.334;3.244;2023-06-22T14:26:53;51.92;;;41.90;;
22812;SDS011;11573;51.334;3.244;2023-06-22T14:29:21;65.55;;;48.88;;
22812;SDS011;11573;51.334;3.244;2023-06-22T14:31:48;61.47;;;47.25;;
22812;SDS011;11573;51.334;3.244;2023-06-22T14:34:15;64.55;;;47.72;;
22812;SDS011;11573;51.334;3.244;2023-06-22T14:36:42;63.15;;;48.13;;